sensor_id;sensor_type;location;lat;lon;timestamp;P1;durP1;ratioP1;P2;durP2;ratioP2
77938;SDS011;67136;47.546;21.630;2024-01-10T00:01:17;11.85;;;5.12;;
77938;SDS011;67136;47.546;21.630;2024-01-10T00:04:20;10.02;;;4.35;;
77938;SDS011;67136;47.546;21.630;2024-01-10T00:07:22;14.35;;;4.72;;
77938;SDS011;67136;47.546;21.630;2024-01-10T00:10:25;17.77;;;6.63;;
77938;SDS011;67136;47.546;21.630;2024-01-10T00:13:28;14.95;;;5.35;;
77938;SDS011;67136;47.546;21.630;2024-01-10T00:16:32;15.55;;;4.75;;
77938;SDS011;67136;47.546;21.630;2024-01-10T00:19:34;14.83;;;4.47;;
77938;SDS011;67136;47.546;21.630;2024-01-10T00:22:37;17.95;;;6.12;;
77938;SDS011;67136;47.546;21.630;2024-01-10T00:25:39;14.93;;;5.12;;
77938;SDS011;67136;47.546;21.630;2024-01-10T00:28:42;12.20;;;4.72;;
77938;SDS011;67136;47.546;21.630;2024-01-10T00:31:47;14.05;;;4.78;;
77938;SDS011;67136;47.546;21.630;2024-01-10T00:34:50;9.57;;;4.43;;
77938;SDS011;67136;47.546;21.630;2024-01-10T00:37:52;9.50;;;4.62;;
77938;SDS011;67136;47.546;21.630;2024-01-10T00:40:55;13.90;;;5.03;;
77938;SDS011;67136;47.546;21.630;2024-01-10T00:43:58;11.38;;;4.50;;
77938;SDS011;67136;47.546;21.630;2024-01-10T00:47:01;14.18;;;4.40;;
77938;SDS011;67136;47.546;21.630;2024-01-10T00:50:05;13.20;;;4.53;;
77938;SDS011;67136;47.546;21.630;2024-01-10T00:53:08;12.25;;;4.40;;
77938;SDS011;67136;47.546;21.630;2024-01-10T00:56:10;12.95;;;4.12;;
77938;SDS011;67136;47.546;21.630;2024-01-10T00:59:14;10.98;;;4.45;;
77938;SDS011;67136;47.546;21.630;2024-01-10T01:02:16;12.13;;;4.05;;
77938;SDS011;67136;47.546;21.630;2024-01-10T01:05:19;10.68;;;4.37;;
77938;SDS011;67136;47.546;21.630;2024-01-10T01:08:22;11.10;;;3.95;;
77938;SDS011;67136;47.546;21.630;2024-01-10T01:11:24;11.73;;;4.13;;
77938;SDS011;67136;47.546;21.630;2024-01-10T01:14:27;8.38;;;4.18;;
77938;SDS011;67136;47.546;21.630;2024-01-10T01:17:30;13.38;;;4.18;;
77938;SDS011;67136;47.546;21.630;2024-01-10T01:20:32;12.30;;;3.93;;
77938;SDS011;67136;47.546;21.630;2024-01-10T01:23:35;10.18;;;3.50;;
77938;SDS011;67136;47.546;21.630;2024-01-10T01:26:43;11.77;;;4.18;;
77938;SDS011;67136;47.546;21.630;2024-01-10T01:29:46;17.42;;;4.97;;
77938;SDS011;67136;47.546;21.630;2024-01-10T01:32:48;13.55;;;4.97;;
77938;SDS011;67136;47.546;21.630;2024-01-10T01:35:51;11.15;;;3.58;;
77938;SDS011;67136;47.546;21.630;2024-01-10T01:38:56;8.88;;;4.25;;
77938;SDS011;67136;47.546;21.630;2024-01-10T01:41:59;8.57;;;3.40;;
77938;SDS011;67136;47.546;21.630;2024-01-10T01:45:01;9.18;;;4.05;;
77938;SDS011;67136;47.546;21.630;2024-01-10T01:48:04;9.90;;;3.80;;
77938;SDS011;67136;47.546;21.630;2024-01-10T01:51:07;14.93;;;4.63;;
77938;SDS011;67136;47.546;21.630;2024-01-10T01:54:11;14.10;;;5.07;;
77938;SDS011;67136;47.546;21.630;2024-01-10T01:57:13;15.52;;;5.45;;
77938;SDS011;67136;47.546;21.630;2024-01-10T02:00:16;15.48;;;4.03;;
77938;SDS011;67136;47.546;21.630;2024-01-10T02:03:19;11.27;;;4.25;;
77938;SDS011;67136;47.546;21.630;2024-01-10T02:06:23;13.35;;;4.12;;
77938;SDS011;67136;47.546;21.630;2024-01-10T02:09:26;10.70;;;4.20;;
77938;SDS011;67136;47.546;21.630;2024-01-10T02:12:29;11.53;;;3.90;;
77938;SDS011;67136;47.546;21.630;2024-01-10T02:15:31;12.65;;;4.80;;
77938;SDS011;67136;47.546;21.630;2024-01-10T02:18:34;15.05;;;4.18;;
77938;SDS011;67136;47.546;21.630;2024-01-10T02:21:40;17.17;;;4.87;;
77938;SDS011;67136;47.546;21.630;2024-01-10T02:24:42;11.43;;;4.20;;
77938;SDS011;67136;47.546;21.630;2024-01-10T02:27:45;11.77;;;3.50;;
77938;SDS011;67136;47.546;21.630;2024-01-10T02:30:49;7.68;;;4.00;;
77938;SDS011;67136;47.546;21.630;2024-01-10T02:33:53;11.93;;;3.47;;
77938;SDS011;67136;47.546;21.630;2024-01-10T02:36:56;9.57;;;3.50;;
77938;SDS011;67136;47.546;21.630;2024-01-10T02:39:59;13.05;;;3.42;;
77938;SDS011;67136;47.546;21.630;2024-01-10T02:43:02;12.03;;;3.70;;
77938;SDS011;67136;47.546;21.630;2024-01-10T02:46:05;12.37;;;4.65;;
77938;SDS011;67136;47.546;21.630;2024-01-10T02:49:07;12.70;;;4.12;;
77938;SDS011;67136;47.546;21.630;2024-01-10T02:52:10;15.13;;;4.63;;
77938;SDS011;67136;47.546;21.630;2024-01-10T02:55:13;14.43;;;3.87;;
77938;SDS011;67136;47.546;21.630;2024-01-10T02:58:15;9.95;;;3.65;;
77938;SDS011;67136;47.546;21.630;2024-01-10T03:01:18;11.77;;;4.47;;
77938;SDS011;67136;47.546;21.630;2024-01-10T03:04:21;15.27;;;4.80;;
77938;SDS011;67136;47.546;21.630;2024-01-10T03:07:23;15.32;;;4.53;;
77938;SDS011;67136;47.546;21.630;2024-01-10T03:10:27;12.00;;;5.07;;
77938;SDS011;67136;47.546;21.630;2024-01-10T03:13:29;18.83;;;4.47;;
77938;SDS011;67136;47.546;21.630;2024-01-10T03:16:32;11.82;;;4.68;;
77938;SDS011;67136;47.546;21.630;2024-01-10T03:19:35;11.98;;;4.85;;
77938;SDS011;67136;47.546;21.630;2024-01-10T03:22:39;13.77;;;4.83;;
77938;SDS011;67136;47.546;21.630;2024-01-10T03:25:42;9.63;;;4.12;;
77938;SDS011;67136;47.546;21.630;2024-01-10T03:28:45;9.20;;;4.47;;
77938;SDS011;67136;47.546;21.630;2024-01-10T03:31:47;10.60;;;4.62;;
77938;SDS011;67136;47.546;21.630;2024-01-10T03:34:50;13.20;;;4.93;;
77938;SDS011;67136;47.546;21.630;2024-01-10T03:37:54;14.13;;;4.50;;
77938;SDS011;67136;47.546;21.630;2024-01-10T03:40:57;14.07;;;4.80;;
77938;SDS011;67136;47.546;21.630;2024-01-10T03:43:59;15.87;;;5.60;;
77938;SDS011;67136;47.546;21.630;2024-01-10T03:47:02;12.43;;;4.70;;
77938;SDS011;67136;47.546;21.630;2024-01-10T03:50:05;12.77;;;4.40;;
77938;SDS011;67136;47.546;21.630;2024-01-10T03:53:09;12.73;;;5.47;;
77938;SDS011;67136;47.546;21.630;2024-01-10T03:56:12;12.95;;;4.25;;
77938;SDS011;67136;47.546;21.630;2024-01-10T03:59:15;12.18;;;4.47;;
77938;SDS011;67136;47.546;21.630;2024-01-10T04:02:18;12.27;;;5.25;;
77938;SDS011;67136;47.546;21.630;2024-01-10T04:05:20;22.25;;;5.00;;
77938;SDS011;67136;47.546;21.630;2024-01-10T04:08:27;13.95;;;4.47;;
77938;SDS011;67136;47.546;21.630;2024-01-10T04:11:29;15.20;;;4.65;;
77938;SDS011;67136;47.546;21.630;2024-01-10T04:14:32;9.80;;;4.27;;
77938;SDS011;67136;47.546;21.630;2024-01-10T04:17:35;13.30;;;5.03;;
77938;SDS011;67136;47.546;21.630;2024-01-10T04:20:38;13.43;;;5.25;;
77938;SDS011;67136;47.546;21.630;2024-01-10T04:23:41;11.23;;;5.27;;
77938;SDS011;67136;47.546;21.630;2024-01-10T04:26:43;9.27;;;4.72;;
77938;SDS011;67136;47.546;21.630;2024-01-10T04:29:46;11.35;;;4.37;;
77938;SDS011;67136;47.546;21.630;2024-01-10T04:32:48;9.40;;;4.45;;
77938;SDS011;67136;47.546;21.630;2024-01-10T04:35:51;13.35;;;4.60;;
77938;SDS011;67136;47.546;21.630;2024-01-10T04:38:53;12.60;;;5.32;;
77938;SDS011;67136;47.546;21.630;2024-01-10T04:41:56;13.38;;;5.43;;
77938;SDS011;67136;47.546;21.630;2024-01-10T04:44:58;11.87;;;5.10;;
77938;SDS011;67136;47.546;21.630;2024-01-10T04:48:01;12.60;;;4.60;;
77938;SDS011;67136;47.546;21.630;2024-01-10T04:51:04;13.77;;;6.18;;
77938;SDS011;67136;47.546;21.630;2024-01-10T04:54:07;18.57;;;5.63;;
77938;SDS011;67136;47.546;21.630;2024-01-10T04:57:10;23.30;;;5.40;;
77938;SDS011;67136;47.546;21.630;2024-01-10T05:00:14;12.88;;;5.47;;
77938;SDS011;67136;47.546;21.630;2024-01-10T05:03:16;13.68;;;5.20;;
77938;SDS011;67136;47.546;21.630;2024-01-10T05:06:20;11.10;;;5.32;;
77938;SDS011;67136;47.546;21.630;2024-01-10T05:09:22;13.07;;;5.93;;
77938;SDS011;67136;47.546;21.630;2024-01-10T05:12:25;13.18;;;5.37;;
77938;SDS011;67136;47.546;21.630;2024-01-10T05:15:27;14.77;;;4.67;;
77938;SDS011;67136;47.546;21.630;2024-01-10T05:18:30;18.87;;;5.25;;
77938;SDS011;67136;47.546;21.630;2024-01-10T05:21:32;19.45;;;6.32;;
77938;SDS011;67136;47.546;21.630;2024-01-10T05:24:36;16.00;;;5.37;;
77938;SDS011;67136;47.546;21.630;2024-01-10T05:27:38;18.58;;;4.93;;
77938;SDS011;67136;47.546;21.630;2024-01-10T05:30:41;18.75;;;4.85;;
77938;SDS011;67136;47.546;21.630;2024-01-10T05:33:45;11.48;;;5.37;;
77938;SDS011;67136;47.546;21.630;2024-01-10T05:36:48;16.55;;;5.22;;
77938;SDS011;67136;47.546;21.630;2024-01-10T05:39:52;13.95;;;5.12;;
77938;SDS011;67136;47.546;21.630;2024-01-10T05:42:54;18.52;;;5.65;;
77938;SDS011;67136;47.546;21.630;2024-01-10T05:45:57;13.73;;;5.93;;
77938;SDS011;67136;47.546;21.630;2024-01-10T05:49:01;13.80;;;5.32;;
77938;SDS011;67136;47.546;21.630;2024-01-10T05:52:04;11.23;;;5.70;;
77938;SDS011;67136;47.546;21.630;2024-01-10T05:55:07;11.70;;;5.23;;
77938;SDS011;67136;47.546;21.630;2024-01-10T05:58:11;11.43;;;4.80;;
77938;SDS011;67136;47.546;21.630;2024-01-10T06:01:13;16.23;;;5.62;;
77938;SDS011;67136;47.546;21.630;2024-01-10T06:04:16;15.82;;;5.10;;
77938;SDS011;67136;47.546;21.630;2024-01-10T06:07:19;19.23;;;6.43;;
77938;SDS011;67136;47.546;21.630;2024-01-10T06:10:23;16.02;;;6.03;;
77938;SDS011;67136;47.546;21.630;2024-01-10T06:13:25;12.40;;;5.65;;
77938;SDS011;67136;47.546;21.630;2024-01-10T06:16:36;20.73;;;8.77;;
77938;SDS011;67136;47.546;21.630;2024-01-10T06:19:38;23.02;;;8.10;;
77938;SDS011;67136;47.546;21.630;2024-01-10T06:22:42;28.67;;;6.37;;
77938;SDS011;67136;47.546;21.630;2024-01-10T06:25:45;18.60;;;7.60;;
77938;SDS011;67136;47.546;21.630;2024-01-10T06:28:47;20.85;;;6.93;;
77938;SDS011;67136;47.546;21.630;2024-01-10T06:31:50;21.35;;;8.57;;
77938;SDS011;67136;47.546;21.630;2024-01-10T06:34:53;18.60;;;6.45;;
77938;SDS011;67136;47.546;21.630;2024-01-10T06:37:55;20.48;;;8.80;;
77938;SDS011;67136;47.546;21.630;2024-01-10T06:40:59;25.40;;;9.23;;
77938;SDS011;67136;47.546;21.630;2024-01-10T06:44:01;25.30;;;8.88;;
77938;SDS011;67136;47.546;21.630;2024-01-10T06:47:06;22.30;;;9.00;;
77938;SDS011;67136;47.546;21.630;2024-01-10T06:50:09;28.98;;;11.38;;
77938;SDS011;67136;47.546;21.630;2024-01-10T06:53:14;32.03;;;10.60;;
77938;SDS011;67136;47.546;21.630;2024-01-10T06:56:18;30.37;;;11.20;;
77938;SDS011;67136;47.546;21.630;2024-01-10T06:59:21;36.78;;;12.52;;
77938;SDS011;67136;47.546;21.630;2024-01-10T07:02:24;26.00;;;10.15;;
77938;SDS011;67136;47.546;21.630;2024-01-10T07:05:28;37.60;;;13.23;;
77938;SDS011;67136;47.546;21.630;2024-01-10T07:08:34;51.37;;;13.95;;
77938;SDS011;67136;47.546;21.630;2024-01-10T07:11:38;34.13;;;13.05;;
77938;SDS011;67136;47.546;21.630;2024-01-10T07:14:43;37.95;;;13.20;;
77938;SDS011;67136;47.546;21.630;2024-01-10T07:17:47;28.77;;;12.70;;
77938;SDS011;67136;47.546;21.630;2024-01-10T07:20:51;35.38;;;13.10;;
77938;SDS011;67136;47.546;21.630;2024-01-10T07:23:55;35.50;;;14.02;;
77938;SDS011;67136;47.546;21.630;2024-01-10T07:26:58;33.23;;;12.43;;
77938;SDS011;67136;47.546;21.630;2024-01-10T07:30:01;31.25;;;13.60;;
77938;SDS011;67136;47.546;21.630;2024-01-10T07:33:04;33.95;;;12.48;;
77938;SDS011;67136;47.546;21.630;2024-01-10T07:36:07;33.35;;;13.65;;
77938;SDS011;67136;47.546;21.630;2024-01-10T07:39:10;36.95;;;13.55;;
77938;SDS011;67136;47.546;21.630;2024-01-10T07:42:12;35.78;;;14.15;;
77938;SDS011;67136;47.546;21.630;2024-01-10T07:45:15;39.75;;;15.65;;
77938;SDS011;67136;47.546;21.630;2024-01-10T07:48:18;34.70;;;13.53;;
77938;SDS011;67136;47.546;21.630;2024-01-10T07:51:20;37.05;;;13.23;;
77938;SDS011;67136;47.546;21.630;2024-01-10T07:54:24;30.60;;;12.55;;
77938;SDS011;67136;47.546;21.630;2024-01-10T07:57:27;37.45;;;13.55;;
77938;SDS011;67136;47.546;21.630;2024-01-10T08:00:30;36.03;;;13.93;;
77938;SDS011;67136;47.546;21.630;2024-01-10T08:03:33;46.55;;;15.32;;
77938;SDS011;67136;47.546;21.630;2024-01-10T08:06:36;39.15;;;15.18;;
77938;SDS011;67136;47.546;21.630;2024-01-10T08:09:39;39.85;;;14.10;;
77938;SDS011;67136;47.546;21.630;2024-01-10T08:12:42;40.10;;;15.93;;
77938;SDS011;67136;47.546;21.630;2024-01-10T08:15:45;41.95;;;14.55;;
77938;SDS011;67136;47.546;21.630;2024-01-10T08:18:47;41.28;;;14.90;;
77938;SDS011;67136;47.546;21.630;2024-01-10T08:21:51;38.00;;;14.63;;
77938;SDS011;67136;47.546;21.630;2024-01-10T08:24:55;41.20;;;14.40;;
77938;SDS011;67136;47.546;21.630;2024-01-10T08:27:58;36.63;;;14.05;;
77938;SDS011;67136;47.546;21.630;2024-01-10T08:31:01;39.35;;;13.60;;
77938;SDS011;67136;47.546;21.630;2024-01-10T08:34:06;39.97;;;14.48;;
77938;SDS011;67136;47.546;21.630;2024-01-10T08:37:09;44.85;;;16.35;;
77938;SDS011;67136;47.546;21.630;2024-01-10T08:40:12;40.75;;;14.73;;
77938;SDS011;67136;47.546;21.630;2024-01-10T08:43:16;43.33;;;14.40;;
77938;SDS011;67136;47.546;21.630;2024-01-10T08:46:20;46.33;;;14.87;;
77938;SDS011;67136;47.546;21.630;2024-01-10T08:49:23;43.72;;;15.63;;
77938;SDS011;67136;47.546;21.630;2024-01-10T08:52:25;40.97;;;16.25;;
77938;SDS011;67136;47.546;21.630;2024-01-10T08:55:28;45.20;;;15.85;;
77938;SDS011;67136;47.546;21.630;2024-01-10T08:58:32;34.47;;;15.52;;
77938;SDS011;67136;47.546;21.630;2024-01-10T09:01:35;48.40;;;16.10;;
77938;SDS011;67136;47.546;21.630;2024-01-10T09:04:37;38.95;;;16.05;;
77938;SDS011;67136;47.546;21.630;2024-01-10T09:07:40;46.80;;;17.00;;
77938;SDS011;67136;47.546;21.630;2024-01-10T09:10:45;35.65;;;15.18;;
77938;SDS011;67136;47.546;21.630;2024-01-10T09:13:47;36.92;;;16.08;;
77938;SDS011;67136;47.546;21.630;2024-01-10T09:16:50;41.70;;;18.20;;
77938;SDS011;67136;47.546;21.630;2024-01-10T09:19:54;37.90;;;16.17;;
77938;SDS011;67136;47.546;21.630;2024-01-10T09:22:57;45.08;;;17.10;;
77938;SDS011;67136;47.546;21.630;2024-01-10T09:26:02;41.00;;;16.35;;
77938;SDS011;67136;47.546;21.630;2024-01-10T09:29:05;41.03;;;16.98;;
77938;SDS011;67136;47.546;21.630;2024-01-10T09:32:08;46.13;;;17.50;;
77938;SDS011;67136;47.546;21.630;2024-01-10T09:35:10;39.88;;;16.37;;
77938;SDS011;67136;47.546;21.630;2024-01-10T09:38:14;40.47;;;17.27;;
77938;SDS011;67136;47.546;21.630;2024-01-10T09:41:17;45.22;;;16.75;;
77938;SDS011;67136;47.546;21.630;2024-01-10T09:44:20;44.20;;;18.65;;
77938;SDS011;67136;47.546;21.630;2024-01-10T09:47:24;44.33;;;16.67;;
77938;SDS011;67136;47.546;21.630;2024-01-10T09:50:28;37.92;;;17.98;;
77938;SDS011;67136;47.546;21.630;2024-01-10T09:53:31;43.70;;;18.48;;
77938;SDS011;67136;47.546;21.630;2024-01-10T09:56:37;39.65;;;18.42;;
77938;SDS011;67136;47.546;21.630;2024-01-10T09:59:41;42.83;;;17.67;;
77938;SDS011;67136;47.546;21.630;2024-01-10T10:02:46;41.47;;;18.53;;
77938;SDS011;67136;47.546;21.630;2024-01-10T10:05:51;41.25;;;20.00;;
77938;SDS011;67136;47.546;21.630;2024-01-10T10:08:54;41.30;;;19.25;;
77938;SDS011;67136;47.546;21.630;2024-01-10T10:11:56;44.95;;;20.25;;
77938;SDS011;67136;47.546;21.630;2024-01-10T10:15:09;43.33;;;20.08;;
77938;SDS011;67136;47.546;21.630;2024-01-10T10:18:13;51.77;;;21.20;;
77938;SDS011;67136;47.546;21.630;2024-01-10T10:21:17;51.72;;;21.05;;
77938;SDS011;67136;47.546;21.630;2024-01-10T10:24:20;45.53;;;21.62;;
77938;SDS011;67136;47.546;21.630;2024-01-10T10:27:27;47.60;;;21.10;;
77938;SDS011;67136;47.546;21.630;2024-01-10T10:30:30;45.67;;;21.80;;
77938;SDS011;67136;47.546;21.630;2024-01-10T10:33:35;45.93;;;20.30;;
77938;SDS011;67136;47.546;21.630;2024-01-10T10:36:39;44.13;;;20.62;;
77938;SDS011;67136;47.546;21.630;2024-01-10T10:39:41;46.95;;;22.27;;
77938;SDS011;67136;47.546;21.630;2024-01-10T10:42:48;46.63;;;20.92;;
77938;SDS011;67136;47.546;21.630;2024-01-10T10:45:55;47.30;;;21.27;;
77938;SDS011;67136;47.546;21.630;2024-01-10T10:48:59;49.87;;;22.40;;
77938;SDS011;67136;47.546;21.630;2024-01-10T10:52:10;55.55;;;23.27;;
77938;SDS011;67136;47.546;21.630;2024-01-10T10:55:13;52.13;;;23.12;;
77938;SDS011;67136;47.546;21.630;2024-01-10T10:58:18;54.10;;;22.48;;
77938;SDS011;67136;47.546;21.630;2024-01-10T11:01:24;53.97;;;22.05;;
77938;SDS011;67136;47.546;21.630;2024-01-10T11:04:29;51.00;;;22.30;;
77938;SDS011;67136;47.546;21.630;2024-01-10T11:07:37;53.38;;;22.75;;
77938;SDS011;67136;47.546;21.630;2024-01-10T11:10:41;45.88;;;22.23;;
77938;SDS011;67136;47.546;21.630;2024-01-10T11:20:47;52.47;;;23.47;;
77938;SDS011;67136;47.546;21.630;2024-01-10T11:23:56;45.12;;;23.12;;
77938;SDS011;67136;47.546;21.630;2024-01-10T11:27:14;53.95;;;25.20;;
77938;SDS011;67136;47.546;21.630;2024-01-10T11:30:36;49.88;;;23.75;;
77938;SDS011;67136;47.546;21.630;2024-01-10T11:33:42;54.83;;;25.80;;
77938;SDS011;67136;47.546;21.630;2024-01-10T11:40:14;48.83;;;23.67;;
77938;SDS011;67136;47.546;21.630;2024-01-10T11:43:17;49.22;;;24.45;;
77938;SDS011;67136;47.546;21.630;2024-01-10T11:46:20;49.72;;;23.95;;
77938;SDS011;67136;47.546;21.630;2024-01-10T11:49:25;55.12;;;24.73;;
77938;SDS011;67136;47.546;21.630;2024-01-10T11:52:32;48.83;;;25.80;;
77938;SDS011;67136;47.546;21.630;2024-01-10T11:59:13;48.53;;;24.85;;
77938;SDS011;67136;47.546;21.630;2024-01-10T12:02:19;50.45;;;24.12;;
77938;SDS011;67136;47.546;21.630;2024-01-10T12:05:23;54.90;;;25.85;;
77938;SDS011;67136;47.546;21.630;2024-01-10T12:08:26;49.93;;;25.60;;
77938;SDS011;67136;47.546;21.630;2024-01-10T12:11:29;51.83;;;25.25;;
77938;SDS011;67136;47.546;21.630;2024-01-10T12:14:31;54.58;;;24.70;;
77938;SDS011;67136;47.546;21.630;2024-01-10T12:17:35;47.45;;;24.63;;
77938;SDS011;67136;47.546;21.630;2024-01-10T12:20:38;49.42;;;24.33;;
77938;SDS011;67136;47.546;21.630;2024-01-10T12:23:41;53.73;;;24.83;;
77938;SDS011;67136;47.546;21.630;2024-01-10T12:26:44;52.65;;;24.65;;
77938;SDS011;67136;47.546;21.630;2024-01-10T12:29:48;52.95;;;27.05;;
77938;SDS011;67136;47.546;21.630;2024-01-10T12:32:55;50.65;;;24.60;;
77938;SDS011;67136;47.546;21.630;2024-01-10T12:36:04;51.75;;;24.98;;
77938;SDS011;67136;47.546;21.630;2024-01-10T12:39:07;56.13;;;23.67;;
77938;SDS011;67136;47.546;21.630;2024-01-10T12:42:10;49.22;;;24.20;;
77938;SDS011;67136;47.546;21.630;2024-01-10T12:45:31;55.85;;;25.62;;
77938;SDS011;67136;47.546;21.630;2024-01-10T12:48:34;56.33;;;25.48;;
77938;SDS011;67136;47.546;21.630;2024-01-10T12:51:40;56.55;;;24.92;;
77938;SDS011;67136;47.546;21.630;2024-01-10T12:54:43;53.53;;;24.43;;
77938;SDS011;67136;47.546;21.630;2024-01-10T12:57:46;51.05;;;25.35;;
77938;SDS011;67136;47.546;21.630;2024-01-10T13:00:48;51.85;;;23.60;;
77938;SDS011;67136;47.546;21.630;2024-01-10T13:03:52;50.45;;;24.37;;
77938;SDS011;67136;47.546;21.630;2024-01-10T13:06:55;57.80;;;24.63;;
77938;SDS011;67136;47.546;21.630;2024-01-10T13:09:57;48.17;;;23.50;;
77938;SDS011;67136;47.546;21.630;2024-01-10T13:13:00;55.85;;;23.83;;
77938;SDS011;67136;47.546;21.630;2024-01-10T13:16:03;50.33;;;23.95;;
77938;SDS011;67136;47.546;21.630;2024-01-10T13:19:06;53.42;;;23.83;;
77938;SDS011;67136;47.546;21.630;2024-01-10T13:22:08;64.22;;;24.33;;
77938;SDS011;67136;47.546;21.630;2024-01-10T13:25:12;53.17;;;23.70;;
77938;SDS011;67136;47.546;21.630;2024-01-10T13:28:14;48.72;;;23.12;;
77938;SDS011;67136;47.546;21.630;2024-01-10T13:31:18;48.50;;;24.15;;
77938;SDS011;67136;47.546;21.630;2024-01-10T13:34:20;51.20;;;23.87;;
77938;SDS011;67136;47.546;21.630;2024-01-10T13:37:23;47.80;;;23.67;;
77938;SDS011;67136;47.546;21.630;2024-01-10T13:40:29;55.27;;;23.33;;
77938;SDS011;67136;47.546;21.630;2024-01-10T13:43:32;49.15;;;22.85;;
77938;SDS011;67136;47.546;21.630;2024-01-10T13:46:34;53.08;;;23.75;;
77938;SDS011;67136;47.546;21.630;2024-01-10T13:49:37;56.55;;;22.67;;
77938;SDS011;67136;47.546;21.630;2024-01-10T13:52:40;50.15;;;23.02;;
77938;SDS011;67136;47.546;21.630;2024-01-10T13:55:43;53.20;;;22.87;;
77938;SDS011;67136;47.546;21.630;2024-01-10T13:58:45;52.80;;;21.52;;
77938;SDS011;67136;47.546;21.630;2024-01-10T14:01:48;49.38;;;22.85;;
77938;SDS011;67136;47.546;21.630;2024-01-10T14:04:51;51.97;;;21.60;;
77938;SDS011;67136;47.546;21.630;2024-01-10T14:07:56;51.17;;;22.15;;
77938;SDS011;67136;47.546;21.630;2024-01-10T14:10:59;53.20;;;22.17;;
77938;SDS011;67136;47.546;21.630;2024-01-10T14:14:01;55.53;;;22.37;;
77938;SDS011;67136;47.546;21.630;2024-01-10T14:17:05;59.38;;;24.12;;
77938;SDS011;67136;47.546;21.630;2024-01-10T14:20:08;47.53;;;22.48;;
77938;SDS011;67136;47.546;21.630;2024-01-10T14:23:11;46.75;;;22.45;;
77938;SDS011;67136;47.546;21.630;2024-01-10T14:26:14;55.53;;;23.37;;
77938;SDS011;67136;47.546;21.630;2024-01-10T14:29:18;47.60;;;22.52;;
77938;SDS011;67136;47.546;21.630;2024-01-10T14:32:21;57.08;;;23.23;;
77938;SDS011;67136;47.546;21.630;2024-01-10T14:35:25;50.10;;;21.12;;
77938;SDS011;67136;47.546;21.630;2024-01-10T14:38:28;50.60;;;22.55;;
77938;SDS011;67136;47.546;21.630;2024-01-10T14:41:31;46.17;;;21.07;;
77938;SDS011;67136;47.546;21.630;2024-01-10T14:44:34;55.33;;;21.50;;
77938;SDS011;67136;47.546;21.630;2024-01-10T14:47:37;52.30;;;23.23;;
77938;SDS011;67136;47.546;21.630;2024-01-10T14:50:40;53.17;;;22.13;;
77938;SDS011;67136;47.546;21.630;2024-01-10T14:53:43;58.15;;;22.33;;
77938;SDS011;67136;47.546;21.630;2024-01-10T14:56:45;58.80;;;22.77;;
77938;SDS011;67136;47.546;21.630;2024-01-10T14:59:51;51.97;;;22.40;;
77938;SDS011;67136;47.546;21.630;2024-01-10T15:02:54;57.40;;;22.92;;
77938;SDS011;67136;47.546;21.630;2024-01-10T15:05:57;50.67;;;21.58;;
77938;SDS011;67136;47.546;21.630;2024-01-10T15:09:00;49.25;;;19.62;;
77938;SDS011;67136;47.546;21.630;2024-01-10T15:12:05;57.97;;;21.57;;
77938;SDS011;67136;47.546;21.630;2024-01-10T15:15:11;49.08;;;20.62;;
77938;SDS011;67136;47.546;21.630;2024-01-10T15:18:13;49.15;;;20.23;;
77938;SDS011;67136;47.546;21.630;2024-01-10T15:21:17;49.83;;;20.40;;
77938;SDS011;67136;47.546;21.630;2024-01-10T15:24:21;53.35;;;20.65;;
77938;SDS011;67136;47.546;21.630;2024-01-10T15:27:25;49.10;;;20.57;;
77938;SDS011;67136;47.546;21.630;2024-01-10T15:30:30;46.97;;;20.12;;
77938;SDS011;67136;47.546;21.630;2024-01-10T15:33:46;47.15;;;20.10;;
77938;SDS011;67136;47.546;21.630;2024-01-10T15:36:49;48.28;;;19.52;;
77938;SDS011;67136;47.546;21.630;2024-01-10T15:39:51;48.40;;;18.87;;
77938;SDS011;67136;47.546;21.630;2024-01-10T15:42:54;56.05;;;21.17;;
77938;SDS011;67136;47.546;21.630;2024-01-10T15:45:57;56.95;;;21.70;;
77938;SDS011;67136;47.546;21.630;2024-01-10T15:48:59;55.83;;;20.73;;
77938;SDS011;67136;47.546;21.630;2024-01-10T15:52:02;49.80;;;20.65;;
77938;SDS011;67136;47.546;21.630;2024-01-10T15:55:05;50.63;;;20.92;;
77938;SDS011;67136;47.546;21.630;2024-01-10T15:58:10;47.00;;;20.35;;
77938;SDS011;67136;47.546;21.630;2024-01-10T16:01:13;49.95;;;19.83;;
77938;SDS011;67136;47.546;21.630;2024-01-10T16:04:16;44.23;;;18.43;;
77938;SDS011;67136;47.546;21.630;2024-01-10T16:07:19;56.08;;;21.15;;
77938;SDS011;67136;47.546;21.630;2024-01-10T16:10:23;50.80;;;19.67;;
77938;SDS011;67136;47.546;21.630;2024-01-10T16:13:31;54.97;;;21.40;;
77938;SDS011;67136;47.546;21.630;2024-01-10T16:16:33;59.90;;;23.12;;
77938;SDS011;67136;47.546;21.630;2024-01-10T16:19:37;62.95;;;21.08;;
77938;SDS011;67136;47.546;21.630;2024-01-10T16:22:41;64.95;;;25.52;;
77938;SDS011;67136;47.546;21.630;2024-01-10T16:25:43;70.57;;;24.13;;
77938;SDS011;67136;47.546;21.630;2024-01-10T16:28:47;54.03;;;22.15;;
77938;SDS011;67136;47.546;21.630;2024-01-10T16:31:50;52.40;;;23.08;;
77938;SDS011;67136;47.546;21.630;2024-01-10T16:34:53;62.33;;;22.52;;
77938;SDS011;67136;47.546;21.630;2024-01-10T16:37:56;58.70;;;22.67;;
77938;SDS011;67136;47.546;21.630;2024-01-10T16:40:59;71.00;;;27.95;;
77938;SDS011;67136;47.546;21.630;2024-01-10T16:44:02;63.80;;;24.15;;
77938;SDS011;67136;47.546;21.630;2024-01-10T16:47:05;61.88;;;23.15;;
77938;SDS011;67136;47.546;21.630;2024-01-10T16:50:11;54.47;;;22.47;;
77938;SDS011;67136;47.546;21.630;2024-01-10T16:53:14;57.03;;;21.62;;
77938;SDS011;67136;47.546;21.630;2024-01-10T16:56:16;54.38;;;19.85;;
77938;SDS011;67136;47.546;21.630;2024-01-10T16:59:19;56.27;;;20.13;;
77938;SDS011;67136;47.546;21.630;2024-01-10T17:02:23;58.50;;;20.65;;
77938;SDS011;67136;47.546;21.630;2024-01-10T17:05:25;51.08;;;20.00;;
77938;SDS011;67136;47.546;21.630;2024-01-10T17:08:28;47.88;;;20.00;;
77938;SDS011;67136;47.546;21.630;2024-01-10T17:11:31;52.53;;;20.95;;
77938;SDS011;67136;47.546;21.630;2024-01-10T17:14:34;51.33;;;20.65;;
77938;SDS011;67136;47.546;21.630;2024-01-10T17:17:37;48.58;;;19.45;;
77938;SDS011;67136;47.546;21.630;2024-01-10T17:20:40;53.30;;;20.83;;
77938;SDS011;67136;47.546;21.630;2024-01-10T17:23:42;45.92;;;18.23;;
77938;SDS011;67136;47.546;21.630;2024-01-10T17:26:45;51.22;;;20.80;;
77938;SDS011;67136;47.546;21.630;2024-01-10T17:29:48;46.90;;;18.67;;
77938;SDS011;67136;47.546;21.630;2024-01-10T17:32:51;50.47;;;18.98;;
77938;SDS011;67136;47.546;21.630;2024-01-10T17:35:54;52.80;;;20.77;;
77938;SDS011;67136;47.546;21.630;2024-01-10T17:38:56;45.63;;;19.30;;
77938;SDS011;67136;47.546;21.630;2024-01-10T17:41:59;49.20;;;19.40;;
77938;SDS011;67136;47.546;21.630;2024-01-10T17:45:02;49.13;;;19.25;;
77938;SDS011;67136;47.546;21.630;2024-01-10T17:48:05;51.03;;;20.77;;
77938;SDS011;67136;47.546;21.630;2024-01-10T17:51:09;55.80;;;20.80;;
77938;SDS011;67136;47.546;21.630;2024-01-10T17:54:12;53.15;;;20.52;;
77938;SDS011;67136;47.546;21.630;2024-01-10T17:57:14;59.17;;;20.48;;